Aviation Digital Data Service (ADDS)

Output produced by TAFs form (0438 UTC 22 September 2017)
found at http://www.aviationweather.gov/adds/tafs/
 
METAR text: ROYN 220400Z AUTO 18007KT 140V230 9999 BKN017 BKN023 BKN100 31/27 Q1011
Conditions at: ROYN (YONAGUNI AIRPORT, JP) observed 0400 UTC 22 September 2017
Temperature: 31.0°C (88°F)
Dewpoint: 27.0°C (81°F) [RH = 79%]
Pressure (altimeter): 29.85 inches Hg (1011.0 mb)
Winds: from the S (180 degrees) at 8 MPH (7 knots; 3.6 m/s)
Visibility: 6 or more miles (10+ km)
Ceiling: 1700 feet AGL
Clouds: broken clouds at 1700 feet AGL
broken clouds at 2300 feet AGL
broken clouds at 10000 feet AGL
Weather: no significant weather observed at this time